createdAt,value
2022-10-13T00:03:42.899Z,31.3
2022-10-13T00:09:37.351Z,36.5
2022-10-13T00:15:28.520Z,35.2
2022-10-13T00:21:20.207Z,43.4
2022-10-13T00:27:12.341Z,37.8
2022-10-13T00:33:04.195Z,41.8
2022-10-13T00:39:06.910Z,39.8
2022-10-13T00:44:57.067Z,43.8
2022-10-13T00:50:48.921Z,40.8
2022-10-13T00:56:41.579Z,36.7
2022-10-13T01:02:31.475Z,33.6
2022-10-13T01:08:22.163Z,35.4
2022-10-13T01:14:12.961Z,30.1
2022-10-13T01:20:04.034Z,39.2
2022-10-13T01:25:55.657Z,42.2
2022-10-13T01:31:47.452Z,43.8
2022-10-13T01:37:36.072Z,43
2022-10-13T01:43:28.218Z,40.3
2022-10-13T01:49:18.973Z,39.8
2022-10-13T01:55:11.584Z,43.8
2022-10-13T02:01:03.453Z,46.5
2022-10-13T02:06:55.016Z,44.1
2022-10-13T02:12:44.552Z,46.8
2022-10-13T02:18:35.882Z,46.3
2022-10-13T02:24:28.260Z,45.6
2022-10-13T02:30:19.006Z,45.3
2022-10-13T02:36:10.029Z,52.9
2022-10-13T02:42:00.869Z,48.2
2022-10-13T02:47:51.828Z,40.8
2022-10-13T02:53:43.101Z,46.6
2022-10-13T02:59:35.020Z,45.3
2022-10-13T03:05:26.494Z,45.1
2022-10-13T03:11:17.021Z,72.1
2022-10-13T03:17:15.674Z,52.3
2022-10-13T03:23:09.769Z,49.7
2022-10-13T03:29:01.055Z,45.8
2022-10-13T03:34:58.801Z,48.5
2022-10-13T03:40:49.498Z,43.6
2022-10-13T03:46:41.476Z,43.2
2022-10-13T03:52:34.086Z,47.2
2022-10-13T03:58:24.999Z,42.7
2022-10-13T04:04:17.236Z,44.5
2022-10-13T04:10:13.118Z,47.1
2022-10-13T04:16:03.627Z,41.7
2022-10-13T04:21:57.501Z,44.5
2022-10-13T04:27:54.245Z,42.8
2022-10-13T04:33:58.128Z,42.4
2022-10-13T04:39:48.840Z,49.5
2022-10-13T04:45:40.114Z,47.4
2022-10-13T04:51:30.904Z,45.5
2022-10-13T04:57:21.094Z,44
2022-10-13T05:03:14.846Z,42.8
2022-10-13T05:09:06.332Z,43.4
2022-10-13T05:15:09.108Z,41.5
2022-10-13T05:20:59.233Z,40.6
2022-10-13T05:26:52.451Z,40.1
2022-10-13T05:32:53.814Z,45.3
2022-10-13T05:38:48.808Z,45.6
2022-10-13T05:44:51.457Z,43.2
2022-10-13T05:50:53.657Z,43.9
2022-10-13T05:56:44.193Z,40.6
2022-10-13T06:02:35.262Z,45.5
2022-10-13T06:08:27.077Z,48.5
2022-10-13T06:14:19.184Z,44.8
2022-10-13T06:20:13.127Z,44.4
2022-10-13T06:26:04.048Z,47.7
2022-10-13T06:31:58.099Z,47
2022-10-13T06:37:48.655Z,49
2022-10-13T06:43:45.726Z,44.8
2022-10-13T06:49:39.601Z,44.7
2022-10-13T06:55:35.171Z,46.4
2022-10-13T07:01:29.628Z,46
2022-10-13T07:07:21.715Z,45.9
2022-10-13T07:13:19.044Z,45.4
2022-10-13T07:19:11.400Z,46.4
2022-10-13T07:25:03.024Z,48.3
2022-10-13T07:30:55.018Z,48
2022-10-13T07:36:47.247Z,47.1
2022-10-13T07:43:01.542Z,45.3
2022-10-13T07:48:58.090Z,44.7
2022-10-13T07:54:53.655Z,46.8
2022-10-13T08:00:59.447Z,44.1
2022-10-13T08:06:58.321Z,45.8
2022-10-13T08:13:01.339Z,49.7
2022-10-13T08:19:07.427Z,48.5
2022-10-13T09:02:10.726Z,34.6
2022-10-13T12:41:21.932Z,15.9
2022-10-13T12:47:21.884Z,13.3
2022-10-13T13:29:45.114Z,14
2022-10-13T13:35:38.090Z,11.7
2022-10-13T13:41:40.930Z,16.7
2022-10-13T13:47:33.640Z,17.3
2022-10-13T13:53:26.669Z,17.2
2022-10-13T13:59:34.646Z,15.8
2022-10-13T14:05:31.473Z,16.9
2022-10-13T14:11:25.527Z,16
2022-10-13T14:17:17.340Z,16.4
2022-10-13T14:23:09.438Z,17.6
2022-10-13T14:29:04.831Z,21.1
2022-10-13T14:35:06.357Z,23.4
2022-10-13T14:40:57.292Z,21.8
2022-10-13T14:46:51.423Z,24.7
2022-10-13T14:52:43.475Z,21.2
2022-10-13T15:04:59.172Z,22
2022-10-13T15:11:11.919Z,28.6
2022-10-13T15:17:06.800Z,27.4
2022-10-13T15:23:05.746Z,39.6
2022-10-13T15:29:04.879Z,30.7
2022-10-13T15:41:13.795Z,22.6
2022-10-13T15:47:19.784Z,25.7
2022-10-13T15:53:10.754Z,27.2
2022-10-13T15:59:13.293Z,24.8
2022-10-13T16:05:08.887Z,29.2
2022-10-13T16:11:00.869Z,26.5
2022-10-13T16:16:58.119Z,24.2
2022-10-13T16:29:34.580Z,24.5
2022-10-13T16:35:31.992Z,25.7
2022-10-13T17:06:29.180Z,25.8
2022-10-13T17:12:26.350Z,25.6
2022-10-13T17:18:19.971Z,26.7
2022-10-13T17:24:18.229Z,27.8
2022-10-13T17:30:35.896Z,27.5
2022-10-13T17:36:34.906Z,29.5
2022-10-13T17:42:46.722Z,28.9
2022-10-13T17:48:39.228Z,29.2
2022-10-13T17:54:33.287Z,31.6
2022-10-13T18:00:30.276Z,33.5
2022-10-13T18:06:42.578Z,33.9
2022-10-13T18:12:36.787Z,29.2
2022-10-13T18:18:37.194Z,31.4
2022-10-13T18:24:28.592Z,25.8
2022-10-13T18:30:28.035Z,21.5
2022-10-13T18:36:18.313Z,18.5
2022-10-13T18:42:12.301Z,16.8
2022-10-13T18:48:04.861Z,13.2
2022-10-13T18:53:59.942Z,11.5
2022-10-13T18:59:53.240Z,9.8
2022-10-13T19:05:46.596Z,11.4
2022-10-13T19:11:37.554Z,14.5
2022-10-13T19:17:33.417Z,18.8
2022-10-13T19:23:35.559Z,13.8
2022-10-13T19:29:31.603Z,11.9
2022-10-13T19:35:25.057Z,10.4
2022-10-13T19:41:19.409Z,8.4
2022-10-13T19:47:13.299Z,10.1
2022-10-13T19:53:20.586Z,10.7
2022-10-13T19:59:24.989Z,11.9
2022-10-13T20:05:15.867Z,13.9
2022-10-13T20:11:23.256Z,12.6
2022-10-13T20:17:14.416Z,12.3
2022-10-13T20:23:13.886Z,11
2022-10-13T20:29:07.415Z,9.2
2022-10-13T20:35:12.670Z,10.6
2022-10-13T20:41:09.239Z,14
2022-10-13T20:47:04.070Z,14
2022-10-13T20:53:11.289Z,15.1
2022-10-13T20:59:21.876Z,15.1
2022-10-13T21:05:20.291Z,17.9
2022-10-13T21:11:12.472Z,19
2022-10-13T21:17:14.198Z,16
2022-10-13T21:23:04.421Z,12.4
2022-10-13T21:28:54.997Z,15.1
2022-10-13T21:34:59.555Z,15.9
2022-10-13T21:41:02.758Z,12.7
2022-10-13T21:46:54.811Z,13.1
2022-10-13T21:52:49.105Z,15
2022-10-13T21:58:56.165Z,13
2022-10-13T22:04:54.007Z,17.1
2022-10-13T22:10:45.358Z,15.3
2022-10-13T22:16:44.819Z,18.4
2022-10-13T22:22:40.441Z,18.8
2022-10-13T22:28:44.646Z,19.1
2022-10-13T22:34:49.521Z,19.7
2022-10-13T22:40:41.245Z,24.2
2022-10-13T22:46:35.425Z,23.1
2022-10-13T22:52:30.830Z,21.7
2022-10-13T22:58:25.692Z,20.3
2022-10-13T23:04:20.791Z,21.7
2022-10-13T23:10:25.959Z,20.8
2022-10-13T23:16:18.663Z,20.7
2022-10-13T23:22:11.076Z,22.1
2022-10-13T23:28:00.826Z,20.3
2022-10-13T23:33:54.960Z,20.2
2022-10-13T23:39:54.332Z,17.6
2022-10-13T23:45:51.599Z,16.8
2022-10-13T23:51:42.894Z,14.7
2022-10-13T23:57:37.223Z,17.1
